sensor_id;sensor_type;location;lat;lon;timestamp;P1;durP1;ratioP1;P2;durP2;ratioP2
21448;SDS011;10885;52.830;13.788;2022-11-12T08:20:59;12.18;;;5.60;;
21448;SDS011;10885;52.830;13.788;2022-11-12T08:26:43;12.57;;;6.60;;
21448;SDS011;10885;52.830;13.788;2022-11-12T08:32:23;13.55;;;5.90;;
21448;SDS011;10885;52.830;13.788;2022-11-12T08:38:04;14.73;;;5.70;;
21448;SDS011;10885;52.830;13.788;2022-11-12T08:43:45;7.72;;;5.45;;
21448;SDS011;10885;52.830;13.788;2022-11-12T08:58:41;19.77;;;6.32;;
21448;SDS011;10885;52.830;13.788;2022-11-12T09:04:01;11.27;;;6.28;;
21448;SDS011;10885;52.830;13.788;2022-11-12T09:09:41;11.55;;;6.60;;
21448;SDS011;10885;52.830;13.788;2022-11-12T09:15:21;13.35;;;6.25;;
21448;SDS011;10885;52.830;13.788;2022-11-12T09:21:16;11.70;;;6.00;;
21448;SDS011;10885;52.830;13.788;2022-11-12T09:26:56;11.50;;;6.32;;
21448;SDS011;10885;52.830;13.788;2022-11-12T09:32:36;10.18;;;6.57;;
21448;SDS011;10885;52.830;13.788;2022-11-12T09:38:15;11.30;;;5.65;;
21448;SDS011;10885;52.830;13.788;2022-11-12T09:43:58;11.20;;;6.57;;
21448;SDS011;10885;52.830;13.788;2022-11-12T09:49:47;11.82;;;6.15;;
21448;SDS011;10885;52.830;13.788;2022-11-12T09:55:35;9.93;;;5.80;;
21448;SDS011;10885;52.830;13.788;2022-11-12T10:01:36;9.45;;;5.78;;
21448;SDS011;10885;52.830;13.788;2022-11-12T10:07:33;11.32;;;6.05;;
21448;SDS011;10885;52.830;13.788;2022-11-12T10:13:41;10.35;;;5.70;;
21448;SDS011;10885;52.830;13.788;2022-11-12T10:31:09;9.73;;;5.30;;
21448;SDS011;10885;52.830;13.788;2022-11-12T10:36:53;11.65;;;5.25;;
21448;SDS011;10885;52.830;13.788;2022-11-12T10:42:54;11.23;;;4.68;;
21448;SDS011;10885;52.830;13.788;2022-11-12T10:48:35;12.13;;;5.60;;
21448;SDS011;10885;52.830;13.788;2022-11-12T10:54:19;14.27;;;4.80;;
21448;SDS011;10885;52.830;13.788;2022-11-12T11:11:31;9.32;;;4.25;;
21448;SDS011;10885;52.830;13.788;2022-11-12T11:17:19;7.55;;;4.50;;
21448;SDS011;10885;52.830;13.788;2022-11-12T11:23:01;13.30;;;5.80;;
21448;SDS011;10885;52.830;13.788;2022-11-12T11:29:31;10.15;;;4.57;;
21448;SDS011;10885;52.830;13.788;2022-11-12T11:58:49;7.80;;;3.78;;
21448;SDS011;10885;52.830;13.788;2022-11-12T12:04:44;11.60;;;3.50;;
21448;SDS011;10885;52.830;13.788;2022-11-12T13:15:11;10.18;;;2.70;;
21448;SDS011;10885;52.830;13.788;2022-11-12T13:21:07;4.97;;;2.88;;
21448;SDS011;10885;52.830;13.788;2022-11-12T13:26:55;5.47;;;3.00;;
21448;SDS011;10885;52.830;13.788;2022-11-12T13:38:34;6.05;;;2.47;;
21448;SDS011;10885;52.830;13.788;2022-11-12T13:44:16;6.07;;;2.20;;
21448;SDS011;10885;52.830;13.788;2022-11-12T13:49:56;7.57;;;3.08;;
21448;SDS011;10885;52.830;13.788;2022-11-12T13:55:46;6.82;;;3.17;;
21448;SDS011;10885;52.830;13.788;2022-11-12T14:01:30;21.93;;;7.63;;
21448;SDS011;10885;52.830;13.788;2022-11-12T14:07:16;10.18;;;3.03;;
21448;SDS011;10885;52.830;13.788;2022-11-12T14:25:13;9.57;;;2.90;;
21448;SDS011;10885;52.830;13.788;2022-11-12T14:30:57;13.73;;;4.07;;
21448;SDS011;10885;52.830;13.788;2022-11-12T14:42:17;10.57;;;3.20;;
21448;SDS011;10885;52.830;13.788;2022-11-12T14:47:57;13.05;;;4.05;;
21448;SDS011;10885;52.830;13.788;2022-11-12T14:53:37;9.07;;;3.70;;
21448;SDS011;10885;52.830;13.788;2022-11-12T14:59:21;10.80;;;5.35;;
21448;SDS011;10885;52.830;13.788;2022-11-12T15:05:15;19.25;;;9.15;;
21448;SDS011;10885;52.830;13.788;2022-11-12T15:11:12;9.32;;;4.53;;
21448;SDS011;10885;52.830;13.788;2022-11-12T15:17:02;9.93;;;4.45;;
21448;SDS011;10885;52.830;13.788;2022-11-12T15:28:30;16.85;;;11.18;;
21448;SDS011;10885;52.830;13.788;2022-11-12T15:40:11;18.58;;;10.00;;
21448;SDS011;10885;52.830;13.788;2022-11-12T15:45:56;14.25;;;6.53;;
21448;SDS011;10885;52.830;13.788;2022-11-12T15:51:36;21.35;;;8.75;;
21448;SDS011;10885;52.830;13.788;2022-11-12T15:57:17;15.50;;;5.63;;
21448;SDS011;10885;52.830;13.788;2022-11-12T16:03:11;13.73;;;4.72;;
21448;SDS011;10885;52.830;13.788;2022-11-12T16:08:55;9.82;;;4.95;;
21448;SDS011;10885;52.830;13.788;2022-11-12T16:14:34;9.73;;;4.93;;
21448;SDS011;10885;52.830;13.788;2022-11-12T16:20:15;14.27;;;5.43;;
21448;SDS011;10885;52.830;13.788;2022-11-12T16:25:57;12.63;;;5.43;;
21448;SDS011;10885;52.830;13.788;2022-11-12T16:31:36;8.75;;;4.78;;
21448;SDS011;10885;52.830;13.788;2022-11-12T16:37:18;14.75;;;5.00;;
21448;SDS011;10885;52.830;13.788;2022-11-12T16:42:58;10.73;;;6.00;;
21448;SDS011;10885;52.830;13.788;2022-11-12T16:48:38;10.90;;;5.28;;
21448;SDS011;10885;52.830;13.788;2022-11-12T16:54:18;11.13;;;5.07;;
21448;SDS011;10885;52.830;13.788;2022-11-12T16:59:58;10.02;;;5.53;;
21448;SDS011;10885;52.830;13.788;2022-11-12T17:05:37;25.90;;;13.95;;
21448;SDS011;10885;52.830;13.788;2022-11-12T17:11:17;16.15;;;10.40;;
21448;SDS011;10885;52.830;13.788;2022-11-12T17:16:57;14.93;;;8.50;;
21448;SDS011;10885;52.830;13.788;2022-11-12T17:22:37;14.82;;;9.10;;
21448;SDS011;10885;52.830;13.788;2022-11-12T17:28:17;15.95;;;10.50;;
21448;SDS011;10885;52.830;13.788;2022-11-12T17:33:56;23.00;;;9.15;;
21448;SDS011;10885;52.830;13.788;2022-11-12T17:39:36;12.57;;;7.70;;
21448;SDS011;10885;52.830;13.788;2022-11-12T17:45:16;15.85;;;7.72;;
21448;SDS011;10885;52.830;13.788;2022-11-12T17:51:30;16.17;;;7.80;;
21448;SDS011;10885;52.830;13.788;2022-11-12T17:57:03;14.35;;;8.70;;
21448;SDS011;10885;52.830;13.788;2022-11-12T18:02:43;12.13;;;6.25;;
21448;SDS011;10885;52.830;13.788;2022-11-12T18:08:23;18.60;;;7.40;;
21448;SDS011;10885;52.830;13.788;2022-11-12T18:14:06;17.23;;;7.65;;
21448;SDS011;10885;52.830;13.788;2022-11-12T18:19:48;16.13;;;7.30;;
21448;SDS011;10885;52.830;13.788;2022-11-12T18:25:27;13.35;;;6.53;;
21448;SDS011;10885;52.830;13.788;2022-11-12T18:31:08;12.48;;;6.93;;
21448;SDS011;10885;52.830;13.788;2022-11-12T18:36:50;12.50;;;7.10;;
21448;SDS011;10885;52.830;13.788;2022-11-12T18:42:30;14.20;;;8.52;;
21448;SDS011;10885;52.830;13.788;2022-11-12T18:48:10;14.07;;;7.45;;
21448;SDS011;10885;52.830;13.788;2022-11-12T18:53:49;11.23;;;7.05;;
21448;SDS011;10885;52.830;13.788;2022-11-12T18:59:29;12.57;;;7.07;;
21448;SDS011;10885;52.830;13.788;2022-11-12T19:05:10;11.73;;;7.60;;
21448;SDS011;10885;52.830;13.788;2022-11-12T19:10:55;11.02;;;6.75;;
21448;SDS011;10885;52.830;13.788;2022-11-12T19:16:39;15.13;;;8.50;;
21448;SDS011;10885;52.830;13.788;2022-11-12T19:22:23;15.38;;;7.88;;
21448;SDS011;10885;52.830;13.788;2022-11-12T19:28:03;16.20;;;8.30;;
21448;SDS011;10885;52.830;13.788;2022-11-12T19:33:42;11.32;;;7.53;;
21448;SDS011;10885;52.830;13.788;2022-11-12T19:39:22;18.55;;;8.57;;
21448;SDS011;10885;52.830;13.788;2022-11-12T19:45:03;18.92;;;10.82;;
21448;SDS011;10885;52.830;13.788;2022-11-12T19:50:43;15.52;;;9.75;;
21448;SDS011;10885;52.830;13.788;2022-11-12T19:56:22;17.35;;;10.68;;
21448;SDS011;10885;52.830;13.788;2022-11-12T20:02:02;18.15;;;10.10;;
21448;SDS011;10885;52.830;13.788;2022-11-12T20:07:42;17.15;;;10.50;;
21448;SDS011;10885;52.830;13.788;2022-11-12T20:13:22;19.00;;;10.00;;
21448;SDS011;10885;52.830;13.788;2022-11-12T20:19:01;15.68;;;9.20;;
21448;SDS011;10885;52.830;13.788;2022-11-12T20:24:41;19.00;;;10.60;;
21448;SDS011;10885;52.830;13.788;2022-11-12T20:30:21;18.42;;;11.00;;
21448;SDS011;10885;52.830;13.788;2022-11-12T20:36:02;19.17;;;11.80;;
21448;SDS011;10885;52.830;13.788;2022-11-12T20:41:42;25.60;;;15.20;;
21448;SDS011;10885;52.830;13.788;2022-11-12T20:47:22;21.67;;;13.20;;
21448;SDS011;10885;52.830;13.788;2022-11-12T20:53:02;20.50;;;13.10;;
21448;SDS011;10885;52.830;13.788;2022-11-12T20:58:42;24.40;;;14.45;;
21448;SDS011;10885;52.830;13.788;2022-11-12T21:04:22;22.67;;;13.68;;
21448;SDS011;10885;52.830;13.788;2022-11-12T21:10:02;21.10;;;13.63;;
21448;SDS011;10885;52.830;13.788;2022-11-12T21:15:45;23.70;;;15.88;;
21448;SDS011;10885;52.830;13.788;2022-11-12T21:21:25;31.92;;;19.35;;
21448;SDS011;10885;52.830;13.788;2022-11-12T21:27:09;27.17;;;18.77;;
21448;SDS011;10885;52.830;13.788;2022-11-12T21:32:52;35.35;;;19.13;;
21448;SDS011;10885;52.830;13.788;2022-11-12T21:38:32;30.13;;;20.05;;
21448;SDS011;10885;52.830;13.788;2022-11-12T21:44:11;36.58;;;23.92;;
21448;SDS011;10885;52.830;13.788;2022-11-12T21:49:52;40.72;;;23.10;;
21448;SDS011;10885;52.830;13.788;2022-11-12T21:55:32;35.10;;;22.88;;
21448;SDS011;10885;52.830;13.788;2022-11-12T22:01:12;36.13;;;22.58;;
21448;SDS011;10885;52.830;13.788;2022-11-12T22:06:55;35.13;;;23.73;;
21448;SDS011;10885;52.830;13.788;2022-11-12T22:12:35;38.13;;;23.17;;
21448;SDS011;10885;52.830;13.788;2022-11-12T22:18:15;47.33;;;27.70;;
21448;SDS011;10885;52.830;13.788;2022-11-12T22:23:55;42.42;;;26.13;;
21448;SDS011;10885;52.830;13.788;2022-11-12T22:29:36;43.00;;;30.20;;
21448;SDS011;10885;52.830;13.788;2022-11-12T22:35:16;40.30;;;25.85;;
21448;SDS011;10885;52.830;13.788;2022-11-12T22:40:59;44.92;;;28.95;;
21448;SDS011;10885;52.830;13.788;2022-11-12T22:46:42;45.85;;;29.73;;
21448;SDS011;10885;52.830;13.788;2022-11-12T22:52:22;45.03;;;29.27;;
21448;SDS011;10885;52.830;13.788;2022-11-12T22:58:02;44.05;;;27.38;;
